sensor_id;sensor_type;location;lat;lon;timestamp;P1;durP1;ratioP1;P2;durP2;ratioP2
49910;SDS011;35803;53.096;5.844;2023-06-22T00:00:36;35.25;;;20.90;;
49910;SDS011;35803;53.096;5.844;2023-06-22T00:03:30;34.35;;;21.50;;
49910;SDS011;35803;53.096;5.844;2023-06-22T00:06:16;37.65;;;22.65;;
49910;SDS011;35803;53.096;5.844;2023-06-22T00:09:01;38.88;;;23.17;;
49910;SDS011;35803;53.096;5.844;2023-06-22T00:11:48;35.80;;;21.75;;
49910;SDS011;35803;53.096;5.844;2023-06-22T00:14:34;37.72;;;22.23;;
49910;SDS011;35803;53.096;5.844;2023-06-22T00:17:20;34.58;;;22.58;;
49910;SDS011;35803;53.096;5.844;2023-06-22T00:20:05;36.95;;;22.58;;
49910;SDS011;35803;53.096;5.844;2023-06-22T00:22:54;38.40;;;22.02;;
49910;SDS011;35803;53.096;5.844;2023-06-22T00:25:40;38.28;;;22.63;;
49910;SDS011;35803;53.096;5.844;2023-06-22T00:28:26;35.13;;;22.88;;
49910;SDS011;35803;53.096;5.844;2023-06-22T00:31:11;36.40;;;22.40;;
49910;SDS011;35803;53.096;5.844;2023-06-22T00:33:57;43.03;;;23.58;;
49910;SDS011;35803;53.096;5.844;2023-06-22T00:36:43;35.50;;;22.30;;
49910;SDS011;35803;53.096;5.844;2023-06-22T00:39:29;33.60;;;21.38;;
49910;SDS011;35803;53.096;5.844;2023-06-22T00:42:14;36.75;;;22.80;;
49910;SDS011;35803;53.096;5.844;2023-06-22T00:45:00;33.92;;;20.85;;
49910;SDS011;35803;53.096;5.844;2023-06-22T00:47:55;29.23;;;19.10;;
49910;SDS011;35803;53.096;5.844;2023-06-22T00:50:42;28.23;;;18.38;;
49910;SDS011;35803;53.096;5.844;2023-06-22T00:53:28;29.67;;;18.45;;
49910;SDS011;35803;53.096;5.844;2023-06-22T00:56:14;27.58;;;18.50;;
49910;SDS011;35803;53.096;5.844;2023-06-22T00:59:04;27.55;;;17.90;;
49910;SDS011;35803;53.096;5.844;2023-06-22T01:01:50;28.27;;;18.83;;
49910;SDS011;35803;53.096;5.844;2023-06-22T01:04:37;32.13;;;20.67;;
49910;SDS011;35803;53.096;5.844;2023-06-22T01:07:27;32.30;;;21.00;;
49910;SDS011;35803;53.096;5.844;2023-06-22T01:10:21;31.95;;;21.65;;
49910;SDS011;35803;53.096;5.844;2023-06-22T01:19:23;35.33;;;22.38;;
49910;SDS011;35803;53.096;5.844;2023-06-22T01:22:17;33.65;;;22.25;;
49910;SDS011;35803;53.096;5.844;2023-06-22T01:25:07;38.42;;;21.73;;
49910;SDS011;35803;53.096;5.844;2023-06-22T01:31:00;34.90;;;21.63;;
49910;SDS011;35803;53.096;5.844;2023-06-22T01:33:55;30.85;;;20.80;;
49910;SDS011;35803;53.096;5.844;2023-06-22T01:36:43;30.70;;;19.47;;
49910;SDS011;35803;53.096;5.844;2023-06-22T01:39:29;28.05;;;19.58;;
49910;SDS011;35803;53.096;5.844;2023-06-22T01:42:15;33.85;;;22.25;;
49910;SDS011;35803;53.096;5.844;2023-06-22T01:45:01;33.20;;;21.92;;
49910;SDS011;35803;53.096;5.844;2023-06-22T01:47:47;33.50;;;22.75;;
49910;SDS011;35803;53.096;5.844;2023-06-22T01:50:34;37.63;;;24.33;;
49910;SDS011;35803;53.096;5.844;2023-06-22T01:53:26;38.08;;;23.70;;
49910;SDS011;35803;53.096;5.844;2023-06-22T01:56:12;32.95;;;22.20;;
49910;SDS011;35803;53.096;5.844;2023-06-22T02:02:15;34.53;;;22.88;;
49910;SDS011;35803;53.096;5.844;2023-06-22T02:05:03;33.80;;;22.05;;
49910;SDS011;35803;53.096;5.844;2023-06-22T02:10:41;35.20;;;23.17;;
49910;SDS011;35803;53.096;5.844;2023-06-22T02:13:28;36.75;;;22.85;;
49910;SDS011;35803;53.096;5.844;2023-06-22T02:16:14;37.72;;;23.40;;
49910;SDS011;35803;53.096;5.844;2023-06-22T02:19:01;31.30;;;21.10;;
49910;SDS011;35803;53.096;5.844;2023-06-22T02:21:51;34.17;;;21.13;;
49910;SDS011;35803;53.096;5.844;2023-06-22T02:24:37;33.28;;;20.30;;
49910;SDS011;35803;53.096;5.844;2023-06-22T02:27:23;35.80;;;22.85;;
49910;SDS011;35803;53.096;5.844;2023-06-22T02:30:08;35.80;;;22.15;;
49910;SDS011;35803;53.096;5.844;2023-06-22T02:32:55;37.40;;;23.35;;
49910;SDS011;35803;53.096;5.844;2023-06-22T02:35:44;38.25;;;23.90;;
49910;SDS011;35803;53.096;5.844;2023-06-22T02:38:33;37.90;;;23.13;;
49910;SDS011;35803;53.096;5.844;2023-06-22T02:41:20;37.42;;;23.58;;
49910;SDS011;35803;53.096;5.844;2023-06-22T02:44:05;38.17;;;23.73;;
49910;SDS011;35803;53.096;5.844;2023-06-22T02:46:51;37.38;;;23.38;;
49910;SDS011;35803;53.096;5.844;2023-06-22T02:49:37;38.55;;;22.88;;
49910;SDS011;35803;53.096;5.844;2023-06-22T02:52:23;37.22;;;23.20;;
49910;SDS011;35803;53.096;5.844;2023-06-22T02:55:09;27.45;;;18.75;;
49910;SDS011;35803;53.096;5.844;2023-06-22T02:57:55;20.33;;;14.93;;
49910;SDS011;35803;53.096;5.844;2023-06-22T03:00:42;20.73;;;14.32;;
49910;SDS011;35803;53.096;5.844;2023-06-22T03:03:28;21.63;;;12.90;;
49910;SDS011;35803;53.096;5.844;2023-06-22T03:06:14;19.75;;;13.48;;
49910;SDS011;35803;53.096;5.844;2023-06-22T03:09:00;16.00;;;13.18;;
49910;SDS011;35803;53.096;5.844;2023-06-22T03:11:47;15.52;;;13.20;;
49910;SDS011;35803;53.096;5.844;2023-06-22T03:14:32;19.30;;;15.38;;
49910;SDS011;35803;53.096;5.844;2023-06-22T03:17:18;21.58;;;16.25;;
49910;SDS011;35803;53.096;5.844;2023-06-22T03:20:04;19.88;;;15.20;;
49910;SDS011;35803;53.096;5.844;2023-06-22T03:22:54;22.92;;;16.88;;
49910;SDS011;35803;53.096;5.844;2023-06-22T03:25:40;19.70;;;16.30;;
49910;SDS011;35803;53.096;5.844;2023-06-22T03:28:30;24.58;;;16.75;;
49910;SDS011;35803;53.096;5.844;2023-06-22T03:31:15;22.80;;;17.50;;
49910;SDS011;35803;53.096;5.844;2023-06-22T03:34:01;22.33;;;17.10;;
49910;SDS011;35803;53.096;5.844;2023-06-22T03:36:47;21.85;;;17.35;;
49910;SDS011;35803;53.096;5.844;2023-06-22T03:39:33;25.35;;;18.20;;
49910;SDS011;35803;53.096;5.844;2023-06-22T03:42:21;25.83;;;17.95;;
49910;SDS011;35803;53.096;5.844;2023-06-22T03:45:07;26.65;;;18.67;;
49910;SDS011;35803;53.096;5.844;2023-06-22T03:47:53;23.48;;;18.17;;
49910;SDS011;35803;53.096;5.844;2023-06-22T03:50:39;26.83;;;17.52;;
49910;SDS011;35803;53.096;5.844;2023-06-22T03:53:24;20.75;;;17.13;;
49910;SDS011;35803;53.096;5.844;2023-06-22T03:56:10;19.80;;;16.52;;
49910;SDS011;35803;53.096;5.844;2023-06-22T03:58:56;27.33;;;18.35;;
49910;SDS011;35803;53.096;5.844;2023-06-22T04:01:42;20.63;;;15.68;;
49910;SDS011;35803;53.096;5.844;2023-06-22T04:04:28;19.17;;;15.70;;
49910;SDS011;35803;53.096;5.844;2023-06-22T04:07:14;23.45;;;15.43;;
49910;SDS011;35803;53.096;5.844;2023-06-22T04:09:59;20.08;;;15.50;;
49910;SDS011;35803;53.096;5.844;2023-06-22T04:12:45;21.92;;;15.43;;
49910;SDS011;35803;53.096;5.844;2023-06-22T04:15:31;21.55;;;16.15;;
49910;SDS011;35803;53.096;5.844;2023-06-22T04:18:17;20.33;;;16.30;;
49910;SDS011;35803;53.096;5.844;2023-06-22T04:21:03;20.10;;;16.90;;
49910;SDS011;35803;53.096;5.844;2023-06-22T04:23:50;18.00;;;15.52;;
49910;SDS011;35803;53.096;5.844;2023-06-22T04:26:36;19.55;;;16.25;;
49910;SDS011;35803;53.096;5.844;2023-06-22T04:29:22;20.73;;;16.42;;
49910;SDS011;35803;53.096;5.844;2023-06-22T04:32:14;22.30;;;16.77;;
49910;SDS011;35803;53.096;5.844;2023-06-22T04:35:05;21.42;;;17.02;;
49910;SDS011;35803;53.096;5.844;2023-06-22T04:37:52;23.48;;;18.10;;
49910;SDS011;35803;53.096;5.844;2023-06-22T04:40:40;21.63;;;17.80;;
49910;SDS011;35803;53.096;5.844;2023-06-22T04:43:26;22.25;;;17.92;;
49910;SDS011;35803;53.096;5.844;2023-06-22T04:46:15;22.33;;;17.08;;
49910;SDS011;35803;53.096;5.844;2023-06-22T04:49:01;24.95;;;18.30;;
49910;SDS011;35803;53.096;5.844;2023-06-22T04:51:47;23.50;;;18.42;;
49910;SDS011;35803;53.096;5.844;2023-06-22T04:54:33;22.83;;;18.15;;
49910;SDS011;35803;53.096;5.844;2023-06-22T04:57:20;22.55;;;17.73;;
49910;SDS011;35803;53.096;5.844;2023-06-22T05:00:06;21.77;;;16.95;;
49910;SDS011;35803;53.096;5.844;2023-06-22T05:03:02;23.50;;;17.75;;
49910;SDS011;35803;53.096;5.844;2023-06-22T05:05:48;20.95;;;17.30;;
49910;SDS011;35803;53.096;5.844;2023-06-22T05:08:34;23.13;;;18.73;;
49910;SDS011;35803;53.096;5.844;2023-06-22T05:11:20;22.88;;;18.42;;
49910;SDS011;35803;53.096;5.844;2023-06-22T05:14:06;24.60;;;18.55;;
49910;SDS011;35803;53.096;5.844;2023-06-22T05:16:52;24.63;;;19.45;;
49910;SDS011;35803;53.096;5.844;2023-06-22T05:19:38;25.95;;;19.08;;
49910;SDS011;35803;53.096;5.844;2023-06-22T05:22:24;26.70;;;19.83;;
49910;SDS011;35803;53.096;5.844;2023-06-22T05:25:11;27.63;;;20.38;;
49910;SDS011;35803;53.096;5.844;2023-06-22T05:28:00;25.65;;;19.73;;
49910;SDS011;35803;53.096;5.844;2023-06-22T05:30:46;24.75;;;19.83;;
49910;SDS011;35803;53.096;5.844;2023-06-22T05:33:31;25.52;;;19.55;;
49910;SDS011;35803;53.096;5.844;2023-06-22T05:36:17;25.45;;;19.25;;
49910;SDS011;35803;53.096;5.844;2023-06-22T05:39:14;25.65;;;18.48;;
49910;SDS011;35803;53.096;5.844;2023-06-22T05:42:00;28.95;;;19.50;;
49910;SDS011;35803;53.096;5.844;2023-06-22T05:44:46;28.52;;;19.50;;
49910;SDS011;35803;53.096;5.844;2023-06-22T05:47:32;35.25;;;21.23;;
49910;SDS011;35803;53.096;5.844;2023-06-22T05:50:18;30.77;;;19.77;;
49910;SDS011;35803;53.096;5.844;2023-06-22T05:53:04;25.48;;;18.33;;
49910;SDS011;35803;53.096;5.844;2023-06-22T05:55:52;28.48;;;19.17;;
49910;SDS011;35803;53.096;5.844;2023-06-22T05:58:37;31.20;;;19.45;;
49910;SDS011;35803;53.096;5.844;2023-06-22T06:01:23;26.70;;;18.38;;
49910;SDS011;35803;53.096;5.844;2023-06-22T06:04:11;25.55;;;17.75;;
49910;SDS011;35803;53.096;5.844;2023-06-22T06:06:57;24.17;;;17.63;;
49910;SDS011;35803;53.096;5.844;2023-06-22T06:09:46;24.95;;;17.50;;
49910;SDS011;35803;53.096;5.844;2023-06-22T06:12:33;24.27;;;17.30;;
49910;SDS011;35803;53.096;5.844;2023-06-22T06:15:19;25.17;;;17.58;;
49910;SDS011;35803;53.096;5.844;2023-06-22T06:18:05;20.88;;;15.77;;
49910;SDS011;35803;53.096;5.844;2023-06-22T06:20:51;23.75;;;16.38;;
49910;SDS011;35803;53.096;5.844;2023-06-22T06:23:37;23.05;;;16.83;;
49910;SDS011;35803;53.096;5.844;2023-06-22T06:26:23;24.17;;;17.77;;
49910;SDS011;35803;53.096;5.844;2023-06-22T06:29:14;29.73;;;19.85;;
49910;SDS011;35803;53.096;5.844;2023-06-22T06:32:01;28.88;;;19.50;;
49910;SDS011;35803;53.096;5.844;2023-06-22T06:34:47;31.17;;;20.33;;
49910;SDS011;35803;53.096;5.844;2023-06-22T06:37:37;27.83;;;20.02;;
49910;SDS011;35803;53.096;5.844;2023-06-22T06:40:24;30.35;;;19.27;;
49910;SDS011;35803;53.096;5.844;2023-06-22T06:43:10;27.15;;;20.55;;
49910;SDS011;35803;53.096;5.844;2023-06-22T06:45:55;27.95;;;19.80;;
49910;SDS011;35803;53.096;5.844;2023-06-22T06:48:41;29.80;;;19.50;;
49910;SDS011;35803;53.096;5.844;2023-06-22T06:51:28;26.50;;;19.00;;
49910;SDS011;35803;53.096;5.844;2023-06-22T06:54:13;28.45;;;20.17;;
49910;SDS011;35803;53.096;5.844;2023-06-22T06:56:59;29.33;;;18.23;;
49910;SDS011;35803;53.096;5.844;2023-06-22T06:59:45;27.83;;;19.13;;
49910;SDS011;35803;53.096;5.844;2023-06-22T07:02:31;24.27;;;17.58;;
49910;SDS011;35803;53.096;5.844;2023-06-22T07:05:17;26.33;;;18.73;;
49910;SDS011;35803;53.096;5.844;2023-06-22T07:08:03;24.98;;;17.83;;
49910;SDS011;35803;53.096;5.844;2023-06-22T07:10:49;24.33;;;17.38;;
49910;SDS011;35803;53.096;5.844;2023-06-22T07:13:37;25.50;;;18.17;;
49910;SDS011;35803;53.096;5.844;2023-06-22T07:16:23;24.92;;;18.02;;
49910;SDS011;35803;53.096;5.844;2023-06-22T07:19:11;25.38;;;17.17;;
49910;SDS011;35803;53.096;5.844;2023-06-22T07:21:58;23.88;;;16.25;;
49910;SDS011;35803;53.096;5.844;2023-06-22T07:24:43;24.80;;;17.00;;
49910;SDS011;35803;53.096;5.844;2023-06-22T07:27:38;21.40;;;15.52;;
49910;SDS011;35803;53.096;5.844;2023-06-22T07:30:28;20.17;;;14.40;;
49910;SDS011;35803;53.096;5.844;2023-06-22T07:33:14;20.65;;;14.02;;
49910;SDS011;35803;53.096;5.844;2023-06-22T07:36:00;16.95;;;12.48;;
49910;SDS011;35803;53.096;5.844;2023-06-22T07:38:48;16.70;;;12.35;;
49910;SDS011;35803;53.096;5.844;2023-06-22T07:41:34;16.90;;;11.90;;
49910;SDS011;35803;53.096;5.844;2023-06-22T07:44:22;14.52;;;11.05;;
49910;SDS011;35803;53.096;5.844;2023-06-22T07:47:07;18.30;;;13.10;;
49910;SDS011;35803;53.096;5.844;2023-06-22T07:49:54;16.30;;;12.07;;
49910;SDS011;35803;53.096;5.844;2023-06-22T07:52:47;17.83;;;11.80;;
49910;SDS011;35803;53.096;5.844;2023-06-22T07:55:33;15.98;;;11.70;;
49910;SDS011;35803;53.096;5.844;2023-06-22T07:58:19;16.58;;;11.60;;
49910;SDS011;35803;53.096;5.844;2023-06-22T08:01:06;14.82;;;9.68;;
49910;SDS011;35803;53.096;5.844;2023-06-22T08:03:51;16.23;;;10.70;;
49910;SDS011;35803;53.096;5.844;2023-06-22T08:06:37;16.10;;;11.00;;
49910;SDS011;35803;53.096;5.844;2023-06-22T08:09:23;17.20;;;11.77;;
49910;SDS011;35803;53.096;5.844;2023-06-22T08:12:20;15.77;;;11.00;;
49910;SDS011;35803;53.096;5.844;2023-06-22T08:15:06;12.77;;;9.57;;
49910;SDS011;35803;53.096;5.844;2023-06-22T08:17:53;12.73;;;9.50;;
49910;SDS011;35803;53.096;5.844;2023-06-22T08:20:38;13.77;;;9.30;;
49910;SDS011;35803;53.096;5.844;2023-06-22T08:23:24;15.40;;;9.32;;
49910;SDS011;35803;53.096;5.844;2023-06-22T08:26:10;12.88;;;9.18;;
49910;SDS011;35803;53.096;5.844;2023-06-22T08:28:56;12.18;;;8.57;;
49910;SDS011;35803;53.096;5.844;2023-06-22T08:31:41;14.43;;;9.70;;
49910;SDS011;35803;53.096;5.844;2023-06-22T08:34:30;11.55;;;8.57;;
49910;SDS011;35803;53.096;5.844;2023-06-22T08:37:15;11.27;;;7.38;;
49910;SDS011;35803;53.096;5.844;2023-06-22T08:40:02;11.40;;;7.43;;
49910;SDS011;35803;53.096;5.844;2023-06-22T08:42:50;9.63;;;6.45;;
49910;SDS011;35803;53.096;5.844;2023-06-22T08:45:36;9.00;;;7.15;;
49910;SDS011;35803;53.096;5.844;2023-06-22T08:48:22;9.63;;;7.15;;
49910;SDS011;35803;53.096;5.844;2023-06-22T08:51:08;12.88;;;8.10;;
49910;SDS011;35803;53.096;5.844;2023-06-22T08:53:54;9.60;;;7.15;;
49910;SDS011;35803;53.096;5.844;2023-06-22T08:56:40;8.05;;;5.25;;
49910;SDS011;35803;53.096;5.844;2023-06-22T08:59:29;12.55;;;8.52;;
49910;SDS011;35803;53.096;5.844;2023-06-22T09:02:14;11.80;;;8.27;;
49910;SDS011;35803;53.096;5.844;2023-06-22T09:05:03;11.25;;;8.55;;
49910;SDS011;35803;53.096;5.844;2023-06-22T09:07:49;9.38;;;6.95;;
49910;SDS011;35803;53.096;5.844;2023-06-22T09:10:35;8.07;;;5.97;;
49910;SDS011;35803;53.096;5.844;2023-06-22T09:13:20;10.48;;;7.55;;
49910;SDS011;35803;53.096;5.844;2023-06-22T09:16:10;9.15;;;6.35;;
49910;SDS011;35803;53.096;5.844;2023-06-22T09:19:00;9.10;;;7.03;;
49910;SDS011;35803;53.096;5.844;2023-06-22T09:21:46;8.90;;;6.93;;
49910;SDS011;35803;53.096;5.844;2023-06-22T09:24:32;11.30;;;7.93;;
49910;SDS011;35803;53.096;5.844;2023-06-22T09:27:18;10.10;;;7.22;;
49910;SDS011;35803;53.096;5.844;2023-06-22T09:30:04;8.38;;;5.50;;
49910;SDS011;35803;53.096;5.844;2023-06-22T09:32:50;9.48;;;7.32;;
49910;SDS011;35803;53.096;5.844;2023-06-22T09:35:36;11.98;;;8.60;;
49910;SDS011;35803;53.096;5.844;2023-06-22T09:38:22;11.20;;;8.40;;
49910;SDS011;35803;53.096;5.844;2023-06-22T09:41:08;9.82;;;7.53;;
49910;SDS011;35803;53.096;5.844;2023-06-22T09:43:53;10.77;;;7.50;;
49910;SDS011;35803;53.096;5.844;2023-06-22T09:46:39;10.63;;;7.47;;
49910;SDS011;35803;53.096;5.844;2023-06-22T09:49:25;14.05;;;8.05;;
49910;SDS011;35803;53.096;5.844;2023-06-22T09:52:11;12.38;;;8.02;;
49910;SDS011;35803;53.096;5.844;2023-06-22T09:54:56;9.57;;;7.45;;
49910;SDS011;35803;53.096;5.844;2023-06-22T09:57:45;10.20;;;6.93;;
49910;SDS011;35803;53.096;5.844;2023-06-22T10:00:31;10.50;;;7.20;;
49910;SDS011;35803;53.096;5.844;2023-06-22T10:03:17;10.35;;;8.05;;
49910;SDS011;35803;53.096;5.844;2023-06-22T10:06:02;9.82;;;7.20;;
49910;SDS011;35803;53.096;5.844;2023-06-22T10:08:52;10.98;;;7.55;;
49910;SDS011;35803;53.096;5.844;2023-06-22T10:11:38;10.35;;;7.43;;
49910;SDS011;35803;53.096;5.844;2023-06-22T10:14:23;10.23;;;7.78;;
49910;SDS011;35803;53.096;5.844;2023-06-22T10:17:10;10.75;;;7.85;;
49910;SDS011;35803;53.096;5.844;2023-06-22T10:19:56;8.98;;;6.25;;
49910;SDS011;35803;53.096;5.844;2023-06-22T10:22:42;12.15;;;7.55;;
49910;SDS011;35803;53.096;5.844;2023-06-22T10:25:29;7.10;;;6.03;;
49910;SDS011;35803;53.096;5.844;2023-06-22T10:28:15;7.32;;;5.82;;
49910;SDS011;35803;53.096;5.844;2023-06-22T10:31:01;9.43;;;6.70;;
49910;SDS011;35803;53.096;5.844;2023-06-22T10:33:47;6.90;;;5.47;;
49910;SDS011;35803;53.096;5.844;2023-06-22T10:36:35;10.77;;;6.82;;
49910;SDS011;35803;53.096;5.844;2023-06-22T10:39:20;10.07;;;7.70;;
49910;SDS011;35803;53.096;5.844;2023-06-22T10:42:06;11.52;;;6.93;;
49910;SDS011;35803;53.096;5.844;2023-06-22T10:44:52;9.82;;;7.00;;
49910;SDS011;35803;53.096;5.844;2023-06-22T10:47:38;10.23;;;7.95;;
49910;SDS011;35803;53.096;5.844;2023-06-22T10:50:25;10.52;;;7.53;;
49910;SDS011;35803;53.096;5.844;2023-06-22T10:53:11;9.52;;;7.45;;
49910;SDS011;35803;53.096;5.844;2023-06-22T10:55:56;10.45;;;8.40;;
49910;SDS011;35803;53.096;5.844;2023-06-22T10:58:43;9.85;;;6.72;;
49910;SDS011;35803;53.096;5.844;2023-06-22T11:01:29;11.98;;;7.47;;
49910;SDS011;35803;53.096;5.844;2023-06-22T11:04:16;7.00;;;5.03;;
49910;SDS011;35803;53.096;5.844;2023-06-22T11:07:02;6.20;;;5.10;;
49910;SDS011;35803;53.096;5.844;2023-06-22T11:09:48;6.43;;;5.32;;
49910;SDS011;35803;53.096;5.844;2023-06-22T11:12:34;6.65;;;4.30;;
49910;SDS011;35803;53.096;5.844;2023-06-22T11:15:23;6.55;;;5.03;;
49910;SDS011;35803;53.096;5.844;2023-06-22T11:18:09;5.97;;;3.95;;
49910;SDS011;35803;53.096;5.844;2023-06-22T11:20:55;4.63;;;3.25;;
49910;SDS011;35803;53.096;5.844;2023-06-22T11:23:41;6.00;;;4.28;;
49910;SDS011;35803;53.096;5.844;2023-06-22T11:26:27;5.70;;;4.47;;
49910;SDS011;35803;53.096;5.844;2023-06-22T11:29:13;6.20;;;4.03;;
49910;SDS011;35803;53.096;5.844;2023-06-22T11:31:59;5.03;;;3.90;;
49910;SDS011;35803;53.096;5.844;2023-06-22T11:34:45;7.85;;;4.63;;
49910;SDS011;35803;53.096;5.844;2023-06-22T11:37:33;6.22;;;4.20;;
49910;SDS011;35803;53.096;5.844;2023-06-22T11:40:19;6.97;;;4.13;;
49910;SDS011;35803;53.096;5.844;2023-06-22T11:43:05;7.40;;;4.50;;
49910;SDS011;35803;53.096;5.844;2023-06-22T11:45:50;5.78;;;4.20;;
49910;SDS011;35803;53.096;5.844;2023-06-22T11:48:37;4.72;;;3.67;;
49910;SDS011;35803;53.096;5.844;2023-06-22T11:51:26;6.03;;;3.70;;
49910;SDS011;35803;53.096;5.844;2023-06-22T11:54:11;5.32;;;3.80;;
49910;SDS011;35803;53.096;5.844;2023-06-22T11:56:57;5.82;;;4.25;;
49910;SDS011;35803;53.096;5.844;2023-06-22T11:59:43;5.45;;;3.75;;
49910;SDS011;35803;53.096;5.844;2023-06-22T12:02:29;4.97;;;3.65;;
49910;SDS011;35803;53.096;5.844;2023-06-22T12:05:15;5.00;;;3.38;;
49910;SDS011;35803;53.096;5.844;2023-06-22T12:08:00;5.03;;;3.90;;
49910;SDS011;35803;53.096;5.844;2023-06-22T12:10:46;5.60;;;4.53;;
49910;SDS011;35803;53.096;5.844;2023-06-22T12:13:32;8.55;;;5.60;;
49910;SDS011;35803;53.096;5.844;2023-06-22T12:16:21;6.43;;;5.15;;
49910;SDS011;35803;53.096;5.844;2023-06-22T12:19:07;7.28;;;5.13;;
49910;SDS011;35803;53.096;5.844;2023-06-22T12:21:52;5.57;;;4.53;;
49910;SDS011;35803;53.096;5.844;2023-06-22T12:24:56;5.55;;;4.07;;
49910;SDS011;35803;53.096;5.844;2023-06-22T12:27:42;7.30;;;4.18;;
49910;SDS011;35803;53.096;5.844;2023-06-22T12:30:30;6.78;;;4.00;;
49910;SDS011;35803;53.096;5.844;2023-06-22T12:33:17;5.32;;;3.78;;
49910;SDS011;35803;53.096;5.844;2023-06-22T12:36:03;6.63;;;4.53;;
49910;SDS011;35803;53.096;5.844;2023-06-22T12:38:50;4.78;;;3.22;;
49910;SDS011;35803;53.096;5.844;2023-06-22T12:41:37;5.22;;;3.90;;
49910;SDS011;35803;53.096;5.844;2023-06-22T12:44:22;5.63;;;4.10;;
49910;SDS011;35803;53.096;5.844;2023-06-22T12:47:08;5.72;;;3.92;;
49910;SDS011;35803;53.096;5.844;2023-06-22T12:49:54;4.90;;;3.42;;
49910;SDS011;35803;53.096;5.844;2023-06-22T12:52:40;4.45;;;3.30;;
49910;SDS011;35803;53.096;5.844;2023-06-22T12:55:28;3.47;;;3.10;;
49910;SDS011;35803;53.096;5.844;2023-06-22T12:58:14;5.05;;;3.22;;
49910;SDS011;35803;53.096;5.844;2023-06-22T13:01:00;4.45;;;3.05;;
49910;SDS011;35803;53.096;5.844;2023-06-22T13:03:46;4.75;;;3.05;;
49910;SDS011;35803;53.096;5.844;2023-06-22T13:06:32;4.63;;;2.90;;
49910;SDS011;35803;53.096;5.844;2023-06-22T13:09:18;4.43;;;3.10;;
49910;SDS011;35803;53.096;5.844;2023-06-22T13:12:07;3.78;;;2.35;;
49910;SDS011;35803;53.096;5.844;2023-06-22T13:14:53;3.10;;;2.65;;
49910;SDS011;35803;53.096;5.844;2023-06-22T13:17:39;3.13;;;2.60;;
49910;SDS011;35803;53.096;5.844;2023-06-22T13:20:24;4.40;;;2.75;;
49910;SDS011;35803;53.096;5.844;2023-06-22T13:23:11;2.95;;;2.53;;
49910;SDS011;35803;53.096;5.844;2023-06-22T13:25:57;3.58;;;2.78;;
49910;SDS011;35803;53.096;5.844;2023-06-22T13:28:43;4.22;;;2.60;;
49910;SDS011;35803;53.096;5.844;2023-06-22T13:31:29;3.25;;;2.47;;
49910;SDS011;35803;53.096;5.844;2023-06-22T13:34:15;2.53;;;2.03;;
49910;SDS011;35803;53.096;5.844;2023-06-22T13:37:01;2.28;;;1.77;;
49910;SDS011;35803;53.096;5.844;2023-06-22T13:39:46;2.45;;;1.60;;
49910;SDS011;35803;53.096;5.844;2023-06-22T13:42:32;1.45;;;1.35;;
49910;SDS011;35803;53.096;5.844;2023-06-22T13:45:18;1.90;;;1.70;;
49910;SDS011;35803;53.096;5.844;2023-06-22T13:48:05;2.80;;;1.60;;
49910;SDS011;35803;53.096;5.844;2023-06-22T13:50:51;2.45;;;1.90;;
49910;SDS011;35803;53.096;5.844;2023-06-22T13:53:37;2.53;;;1.63;;
49910;SDS011;35803;53.096;5.844;2023-06-22T13:56:23;2.45;;;1.73;;
49910;SDS011;35803;53.096;5.844;2023-06-22T13:59:09;3.30;;;1.77;;
49910;SDS011;35803;53.096;5.844;2023-06-22T14:01:55;3.35;;;1.80;;
49910;SDS011;35803;53.096;5.844;2023-06-22T14:04:41;2.60;;;1.80;;
49910;SDS011;35803;53.096;5.844;2023-06-22T14:07:29;2.58;;;1.67;;
49910;SDS011;35803;53.096;5.844;2023-06-22T14:10:15;2.13;;;1.73;;
49910;SDS011;35803;53.096;5.844;2023-06-22T14:13:00;2.13;;;1.77;;
49910;SDS011;35803;53.096;5.844;2023-06-22T14:15:46;2.55;;;1.40;;
49910;SDS011;35803;53.096;5.844;2023-06-22T14:18:33;1.80;;;1.50;;
49910;SDS011;35803;53.096;5.844;2023-06-22T14:21:19;2.15;;;1.50;;
49910;SDS011;35803;53.096;5.844;2023-06-22T14:24:04;2.78;;;1.38;;
49910;SDS011;35803;53.096;5.844;2023-06-22T14:26:50;1.27;;;1.10;;
49910;SDS011;35803;53.096;5.844;2023-06-22T14:29:36;1.90;;;1.30;;
49910;SDS011;35803;53.096;5.844;2023-06-22T14:32:22;1.30;;;1.20;;
49910;SDS011;35803;53.096;5.844;2023-06-22T14:35:08;1.38;;;1.27;;
49910;SDS011;35803;53.096;5.844;2023-06-22T14:37:54;1.50;;;1.30;;
49910;SDS011;35803;53.096;5.844;2023-06-22T14:40:39;1.35;;;1.13;;
49910;SDS011;35803;53.096;5.844;2023-06-22T14:43:25;1.23;;;1.00;;
49910;SDS011;35803;53.096;5.844;2023-06-22T14:46:11;1.33;;;1.00;;
49910;SDS011;35803;53.096;5.844;2023-06-22T14:48:57;1.65;;;1.15;;
49910;SDS011;35803;53.096;5.844;2023-06-22T14:51:43;1.58;;;1.02;;
49910;SDS011;35803;53.096;5.844;2023-06-22T14:54:28;1.30;;;1.10;;
49910;SDS011;35803;53.096;5.844;2023-06-22T14:57:14;1.67;;;1.10;;
49910;SDS011;35803;53.096;5.844;2023-06-22T15:00:03;1.20;;;1.00;;
49910;SDS011;35803;53.096;5.844;2023-06-22T15:02:51;1.38;;;1.02;;
49910;SDS011;35803;53.096;5.844;2023-06-22T15:05:37;1.70;;;1.20;;
49910;SDS011;35803;53.096;5.844;2023-06-22T15:08:23;1.38;;;1.00;;
49910;SDS011;35803;53.096;5.844;2023-06-22T15:11:12;1.55;;;1.02;;
49910;SDS011;35803;53.096;5.844;2023-06-22T15:13:58;1.10;;;1.00;;
49910;SDS011;35803;53.096;5.844;2023-06-22T15:16:44;1.65;;;1.00;;
49910;SDS011;35803;53.096;5.844;2023-06-22T15:19:30;2.67;;;1.10;;
49910;SDS011;35803;53.096;5.844;2023-06-22T15:22:16;1.30;;;1.10;;
49910;SDS011;35803;53.096;5.844;2023-06-22T15:25:03;2.75;;;1.17;;
49910;SDS011;35803;53.096;5.844;2023-06-22T15:27:49;2.45;;;0.90;;
49910;SDS011;35803;53.096;5.844;2023-06-22T15:30:35;1.35;;;1.20;;
49910;SDS011;35803;53.096;5.844;2023-06-22T15:33:23;2.05;;;1.10;;
49910;SDS011;35803;53.096;5.844;2023-06-22T15:36:09;1.38;;;0.90;;
49910;SDS011;35803;53.096;5.844;2023-06-22T15:38:55;1.65;;;1.23;;
49910;SDS011;35803;53.096;5.844;2023-06-22T15:41:41;1.95;;;1.10;;
49910;SDS011;35803;53.096;5.844;2023-06-22T15:44:27;1.30;;;1.00;;
49910;SDS011;35803;53.096;5.844;2023-06-22T15:47:13;1.25;;;0.95;;
49910;SDS011;35803;53.096;5.844;2023-06-22T15:49:59;1.85;;;1.10;;
49910;SDS011;35803;53.096;5.844;2023-06-22T15:52:44;1.45;;;1.30;;
49910;SDS011;35803;53.096;5.844;2023-06-22T15:55:32;1.75;;;1.30;;
49910;SDS011;35803;53.096;5.844;2023-06-22T15:58:20;2.55;;;1.20;;
49910;SDS011;35803;53.096;5.844;2023-06-22T16:01:06;1.92;;;1.10;;
49910;SDS011;35803;53.096;5.844;2023-06-22T16:03:52;1.88;;;1.20;;
49910;SDS011;35803;53.096;5.844;2023-06-22T16:06:38;1.40;;;1.10;;
49910;SDS011;35803;53.096;5.844;2023-06-22T16:09:24;1.65;;;1.13;;
49910;SDS011;35803;53.096;5.844;2023-06-22T16:12:10;1.95;;;1.33;;
49910;SDS011;35803;53.096;5.844;2023-06-22T16:14:56;2.20;;;1.20;;
49910;SDS011;35803;53.096;5.844;2023-06-22T16:17:42;1.52;;;1.15;;
49910;SDS011;35803;53.096;5.844;2023-06-22T16:20:27;2.90;;;1.50;;
49910;SDS011;35803;53.096;5.844;2023-06-22T16:23:13;1.38;;;1.20;;
49910;SDS011;35803;53.096;5.844;2023-06-22T16:25:59;2.15;;;1.25;;
49910;SDS011;35803;53.096;5.844;2023-06-22T16:28:44;2.78;;;1.40;;
49910;SDS011;35803;53.096;5.844;2023-06-22T16:31:30;1.92;;;1.27;;
49910;SDS011;35803;53.096;5.844;2023-06-22T16:34:16;1.40;;;1.17;;
49910;SDS011;35803;53.096;5.844;2023-06-22T16:37:02;1.30;;;1.15;;
49910;SDS011;35803;53.096;5.844;2023-06-22T16:39:48;1.83;;;1.50;;
49910;SDS011;35803;53.096;5.844;2023-06-22T16:42:33;4.03;;;1.73;;